Time;durP1;ratioP1;P1;durP2;ratioP2;P2;SDS_P1;SDS_P2;PMS_P1;PMS_P2;Temp;Humidity;BMP_temperature;BMP_pressure;BME280_temperature;BME280_humidity;BME280_pressure;Samples;Min_cycle;Max_cycle;Signal;HPM_P1;HPM_P2
2023/05/21 00:00:07;;;;;;;0.60;0.60;;;;;;;17.22;72.30;95038.22;5074174;28;20442;-65
2023/05/21 00:02:35;;;;;;;2.00;0.37;;;;;;;17.07;72.66;95036.81;5073651;28;20434;-65
2023/05/21 00:05:04;;;;;;;0.43;0.40;;;;;;;17.02;72.41;95037.78;5074277;28;20449;-66
2023/05/21 00:07:33;;;;;;;1.27;0.93;;;;;;;16.99;72.46;95033.03;5073895;28;20441;-65
2023/05/21 00:10:01;;;;;;;3.97;0.67;;;;;;;17.16;73.79;95034.91;5073586;28;20441;-65
2023/05/21 00:12:31;;;;;;;0.43;0.40;;;;;;;17.12;71.38;95033.97;5073976;28;20434;-65
2023/05/21 00:15:00;;;;;;;0.50;0.40;;;;;;;16.87;72.25;95026.75;5073968;28;20508;-65
2023/05/21 00:17:30;;;;;;;1.73;0.50;;;;;;;16.91;79.26;95025.78;5047561;28;20466;-65
2023/05/21 00:19:58;;;;;;;3.43;0.33;;;;;;;16.88;73.57;95028.31;5073376;28;20437;-65
2023/05/21 00:22:27;;;;;;;1.67;0.47;;;;;;;16.86;73.83;95022.47;5048044;28;20445;-65
2023/05/21 00:24:55;;;;;;;0.47;0.33;;;;;;;16.84;74.83;95022.81;5073302;28;20445;-66
2023/05/21 00:27:24;;;;;;;0.87;0.47;;;;;;;16.99;75.58;95018.88;5073381;28;20462;-66
2023/05/21 00:29:52;;;;;;;0.40;0.30;;;;;;;17.05;73.36;95028.31;5073237;28;20913;-65
2023/05/21 00:32:20;;;;;;;0.53;0.50;;;;;;;17.23;72.35;95026.41;5073674;28;20893;-65
2023/05/21 00:34:50;;;;;;;2.10;1.33;;;;;;;17.25;72.47;95016.94;5073603;28;20495;-65
2023/05/21 00:37:19;;;;;;;0.47;0.40;;;;;;;17.23;72.25;95024.50;5073118;28;20433;-65
2023/05/21 00:39:47;;;;;;;0.40;0.27;;;;;;;17.15;75.31;95034.13;5059607;28;20469;-65
2023/05/21 00:42:16;;;;;;;1.60;0.30;;;;;;;17.07;75.82;95021.53;5062864;28;20441;-65
2023/05/21 00:44:45;;;;;;;0.50;0.40;;;;;;;17.02;79.89;95020.91;5069521;28;20483;-65
2023/05/21 00:47:17;;;;;;;0.70;0.30;;;;;;;16.90;73.99;95018.84;5072481;28;20494;-65
2023/05/21 00:49:46;;;;;;;0.77;0.77;;;;;;;16.63;73.62;95018.38;5072818;28;20812;-65
2023/05/21 00:52:19;;;;;;;1.13;0.50;;;;;;;16.79;85.95;95014.94;5073089;28;21146;-65
2023/05/21 00:54:49;;;;;;;0.70;0.43;;;;;;;17.00;76.28;95007.06;5072960;28;20469;-65
2023/05/21 00:57:19;;;;;;;0.50;0.50;;;;;;;16.99;74.84;95008.16;5072686;28;20468;-66
2023/05/21 00:59:49;;;;;;;0.63;0.60;;;;;;;16.81;74.83;95006.59;5073212;28;20448;-65
2023/05/21 01:02:18;;;;;;;2.60;0.57;;;;;;;16.83;75.32;95004.38;5072404;28;20498;-66
2023/05/21 01:04:46;;;;;;;0.57;0.57;;;;;;;16.90;74.47;94994.00;5072914;28;20437;-65
2023/05/21 01:07:17;;;;;;;0.40;0.30;;;;;;;17.05;80.07;94996.19;5072195;28;20511;-65
2023/05/21 01:09:45;;;;;;;0.40;0.30;;;;;;;17.12;76.29;95002.63;5073104;28;20437;-64
2023/05/21 01:12:15;;;;;;;0.50;0.40;;;;;;;16.97;74.00;94997.78;5072209;28;20863;-65
2023/05/21 01:14:44;;;;;;;0.50;0.50;;;;;;;16.64;73.42;94993.22;5072977;28;20465;-64
2023/05/21 01:17:12;;;;;;;1.33;1.33;;;;;;;16.78;73.96;94986.59;5072436;28;20946;-64
2023/05/21 01:19:43;;;;;;;0.57;0.40;;;;;;;16.83;74.02;94988.31;5072768;28;20442;-64
2023/05/21 01:22:14;;;;;;;1.23;0.57;;;;;;;16.79;73.58;94992.72;5070911;28;20448;-64
2023/05/21 01:24:46;;;;;;;0.40;0.30;;;;;;;16.84;72.51;94968.47;5072564;28;20490;-64
2023/05/21 01:27:14;;;;;;;0.53;0.40;;;;;;;17.08;72.79;94987.50;5071901;28;20469;-64
2023/05/21 01:29:43;;;;;;;0.40;0.30;;;;;;;17.14;76.00;94984.34;5072110;28;20440;-64
2023/05/21 01:32:22;;;;;;;0.40;0.30;;;;;;;17.07;72.72;94976.03;5071935;28;20525;-64
2023/05/21 01:35:00;;;;;;;0.93;0.67;;;;;;;16.97;74.42;94986.28;5071664;28;20599;-64
2023/05/21 01:37:34;;;;;;;0.50;0.50;;;;;;;16.94;73.13;94978.88;5072593;28;20448;-64
2023/05/21 01:40:10;;;;;;;0.70;0.70;;;;;;;16.87;73.38;94979.34;5072463;28;20861;-64
2023/05/21 01:42:43;;;;;;;0.40;0.20;;;;;;;16.96;73.70;94982.81;5071560;28;20563;-64
2023/05/21 01:45:13;;;;;;;0.73;0.50;;;;;;;16.95;73.37;94978.53;5071987;28;20444;-64
2023/05/21 01:47:45;;;;;;;0.50;0.40;;;;;;;16.91;72.42;94969.56;5071579;28;20447;-64
2023/05/21 01:50:14;;;;;;;0.37;0.23;;;;;;;17.12;71.33;94972.38;5072221;28;20796;-64
2023/05/21 01:52:50;;;;;;;0.50;0.40;;;;;;;17.25;71.10;94968.75;5072164;28;20444;-64
2023/05/21 01:55:23;;;;;;;0.40;0.30;;;;;;;17.26;70.91;94972.19;5071647;28;20472;-64
2023/05/21 01:57:52;;;;;;;0.60;0.50;;;;;;;17.05;73.17;94950.66;5071965;28;20437;-64
2023/05/21 02:00:21;;;;;;;0.60;0.57;;;;;;;17.11;72.18;94960.09;5071718;28;20499;-63
2023/05/21 02:02:50;;;;;;;0.60;0.60;;;;;;;16.64;71.35;94911.06;5071493;28;20791;-64
2023/05/21 02:05:19;;;;;;;0.50;0.50;;;;;;;17.02;71.63;94949.41;5071727;28;20503;-64
2023/05/21 02:07:48;;;;;;;0.30;0.20;;;;;;;17.08;70.74;94950.00;5045769;28;20454;-63
2023/05/21 02:10:16;;;;;;;0.50;0.30;;;;;;;17.20;71.18;94944.00;5071483;28;20494;-63
2023/05/21 02:12:46;;;;;;;0.40;0.30;;;;;;;17.24;70.49;94945.72;5071604;28;20438;-63
2023/05/21 02:15:16;;;;;;;2.07;1.23;;;;;;;16.92;71.17;94951.63;5069860;28;20473;-63
2023/05/21 02:17:45;;;;;;;0.60;0.30;;;;;;;16.94;71.95;94936.81;5060669;28;20433;-63
2023/05/21 02:20:14;;;;;;;0.60;0.50;;;;;;;16.97;72.01;94948.78;5070649;28;20429;-64
2023/05/21 02:22:45;;;;;;;0.40;0.40;;;;;;;16.96;70.62;94942.66;5071310;28;20877;-63
2023/05/21 02:25:17;;;;;;;0.47;0.33;;;;;;;17.02;70.56;94944.06;5071352;28;20442;-63
2023/05/21 02:27:46;;;;;;;0.50;0.40;;;;;;;16.98;71.20;94943.09;5071039;28;20469;-63
2023/05/21 02:30:15;;;;;;;0.30;0.20;;;;;;;17.04;71.27;94946.41;5071163;28;20440;-63
2023/05/21 02:32:44;;;;;;;0.40;0.30;;;;;;;16.92;71.07;94935.56;5071265;28;20980;-63
2023/05/21 02:35:13;;;;;;;0.80;0.80;;;;;;;16.57;72.67;94910.72;5071502;28;20437;-62
2023/05/21 02:37:42;;;;;;;0.50;0.47;;;;;;;16.68;73.15;94940.63;5071995;28;20433;-63
2023/05/21 02:40:12;;;;;;;0.40;0.30;;;;;;;16.67;73.02;94923.00;5071572;28;20440;-63
2023/05/21 02:42:41;;;;;;;1.03;0.87;;;;;;;16.92;72.87;94941.72;5071248;28;20481;-63
2023/05/21 02:45:12;;;;;;;0.40;0.20;;;;;;;16.93;71.84;94951.31;5045740;28;20438;-63
2023/05/21 02:47:40;;;;;;;0.40;0.30;;;;;;;16.89;71.84;94946.91;5071378;28;21023;-63
2023/05/21 02:50:09;;;;;;;0.40;0.20;;;;;;;16.84;72.30;94910.38;5071175;28;20468;-63
2023/05/21 02:52:38;;;;;;;0.40;0.30;;;;;;;17.13;71.77;94941.81;5071503;28;20434;-63
2023/05/21 02:55:07;;;;;;;1.00;0.50;;;;;;;17.16;71.40;94943.84;5071310;28;20450;-63
2023/05/21 02:57:35;;;;;;;0.40;0.40;;;;;;;17.04;73.21;94946.41;5071109;28;20477;-63
2023/05/21 03:00:07;;;;;;;0.50;0.30;;;;;;;16.96;71.93;94933.81;5071273;28;20471;-63
2023/05/21 03:02:37;;;;;;;0.50;0.30;;;;;;;16.94;71.47;94957.44;5070758;28;20440;-63
2023/05/21 03:05:06;;;;;;;0.60;0.60;;;;;;;16.98;72.04;94955.69;5071510;28;20859;-63
2023/05/21 03:07:35;;;;;;;0.93;0.93;;;;;;;16.85;79.13;94956.69;5070878;28;20437;-63
2023/05/21 03:10:04;;;;;;;0.53;0.40;;;;;;;16.98;72.81;94956.50;5071010;28;20499;-63
2023/05/21 03:12:32;;;;;;;0.40;0.30;;;;;;;16.87;72.86;94951.78;5070672;28;20441;-63
2023/05/21 03:15:00;;;;;;;5.13;0.50;;;;;;;16.84;74.91;94955.09;5070955;28;20969;-63
2023/05/21 03:17:28;;;;;;;0.40;0.30;;;;;;;16.94;72.87;94963.59;5070769;28;20476;-60
2023/05/21 03:19:58;;;;;;;0.40;0.40;;;;;;;16.91;72.40;94953.53;5070693;28;20514;-59
2023/05/21 03:22:27;;;;;;;0.40;0.30;;;;;;;16.86;71.68;94942.97;5071051;28;20444;-59
2023/05/21 03:24:57;;;;;;;0.40;0.30;;;;;;;17.25;71.00;94955.34;5056964;28;20438;-59
2023/05/21 03:27:25;;;;;;;0.40;0.40;;;;;;;17.29;70.43;94958.94;5070562;28;20567;-59
2023/05/21 03:29:54;;;;;;;0.40;0.20;;;;;;;17.25;71.23;94958.03;5070133;28;20445;-59
2023/05/21 03:32:23;;;;;;;3.73;0.80;;;;;;;17.13;70.80;94966.69;5070252;28;20988;-59
2023/05/21 03:34:51;;;;;;;0.50;0.50;;;;;;;16.95;71.98;94975.84;5070432;28;20441;-59
2023/05/21 03:37:21;;;;;;;0.50;0.37;;;;;;;16.80;71.97;94962.19;5070558;28;20473;-59
2023/05/21 03:39:49;;;;;;;0.40;0.40;;;;;;;17.00;72.26;94978.38;5070509;28;20498;-59
2023/05/21 03:42:18;;;;;;;0.40;0.30;;;;;;;16.95;72.14;94980.44;5071381;28;20441;-59
2023/05/21 03:44:46;;;;;;;0.40;0.27;;;;;;;17.27;71.23;94974.56;5071860;28;20433;-59
2023/05/21 03:47:15;;;;;;;0.40;0.30;;;;;;;17.12;70.25;94949.06;5074251;28;20429;-59
2023/05/21 03:49:43;;;;;;;1.07;0.50;;;;;;;16.99;70.34;94968.78;5073893;28;20437;-59
2023/05/21 03:52:11;;;;;;;1.03;0.57;;;;;;;16.90;70.69;94981.38;5074298;28;20851;-59
2023/05/21 03:54:41;;;;;;;1.23;0.70;;;;;;;17.06;70.32;94977.13;5073769;28;20950;-60
2023/05/21 03:57:09;;;;;;;0.40;0.30;;;;;;;17.14;69.89;94968.28;5074191;28;20505;-60
2023/05/21 03:59:38;;;;;;;1.43;0.60;;;;;;;17.29;75.87;94975.03;5073989;28;20528;-60
2023/05/21 04:02:06;;;;;;;0.40;0.30;;;;;;;17.40;70.32;94975.47;5074069;28;20452;-60
2023/05/21 04:04:35;;;;;;;0.73;0.40;;;;;;;17.23;69.24;94978.97;5047972;28;20926;-60
2023/05/21 04:07:04;;;;;;;3.40;0.60;;;;;;;17.12;69.98;94977.75;5073865;28;20441;-60
2023/05/21 04:09:32;;;;;;;0.70;0.50;;;;;;;16.95;70.28;94972.41;5074042;28;20476;-60
2023/05/21 04:12:06;;;;;;;0.63;0.60;;;;;;;16.85;70.31;94973.50;5073736;28;20441;-61
2023/05/21 04:14:35;;;;;;;0.83;0.83;;;;;;;16.89;71.08;94981.72;5073909;28;20831;-61
2023/05/21 04:17:04;;;;;;;0.40;0.30;;;;;;;16.99;70.31;94976.81;5073506;28;20542;-60
2023/05/21 04:19:34;;;;;;;0.50;0.50;;;;;;;16.63;72.29;94919.38;5074245;28;20437;-61
2023/05/21 04:22:02;;;;;;;1.00;0.50;;;;;;;17.25;68.35;94971.41;5074061;28;20442;-61
2023/05/21 04:24:31;;;;;;;0.40;0.40;;;;;;;17.29;69.85;94985.72;5073462;28;20450;-61
2023/05/21 04:27:00;;;;;;;0.50;0.50;;;;;;;17.41;69.32;94988.53;5073129;28;21034;-61
2023/05/21 04:29:30;;;;;;;0.40;0.20;;;;;;;17.63;68.03;94987.56;5073479;28;20441;-62
2023/05/21 04:31:58;;;;;;;0.50;0.30;;;;;;;17.66;69.63;94995.72;5073388;28;20927;-62
2023/05/21 04:34:26;;;;;;;0.30;0.20;;;;;;;17.50;69.09;94996.56;5073748;28;20437;-61
2023/05/21 04:36:55;;;;;;;0.40;0.37;;;;;;;17.51;69.64;94993.53;5047552;28;20538;-62
2023/05/21 04:39:24;;;;;;;0.47;0.30;;;;;;;17.81;68.97;94996.31;5073211;28;20521;-63
2023/05/21 04:41:53;;;;;;;0.40;0.30;;;;;;;17.93;68.54;94989.16;5073744;28;20438;-62
2023/05/21 04:44:22;;;;;;;0.40;0.30;;;;;;;17.74;67.50;94922.53;5073259;28;20503;-62
2023/05/21 04:46:53;;;;;;;0.90;0.90;;;;;;;17.69;68.11;94928.09;5064884;28;20460;-63
2023/05/21 04:49:22;;;;;;;0.60;0.60;;;;;;;17.88;68.53;94978.63;5068966;28;20938;-62
2023/05/21 04:51:50;;;;;;;0.80;0.80;;;;;;;17.69;69.86;94988.94;5073382;28;20877;-63
2023/05/21 04:54:18;;;;;;;0.40;0.40;;;;;;;17.52;70.92;94986.31;5059908;28;20441;-63
2023/05/21 04:56:47;;;;;;;0.50;0.40;;;;;;;17.75;70.87;94984.97;5072597;28;20481;-63
2023/05/21 04:59:16;;;;;;;0.40;0.20;;;;;;;17.80;71.00;94984.00;5072804;28;20476;-64
2023/05/21 05:01:44;;;;;;;0.50;0.30;;;;;;;18.04;71.31;94985.00;5073120;28;20441;-63
2023/05/21 05:04:14;;;;;;;0.40;0.37;;;;;;;17.94;70.52;94912.16;5072494;28;20962;-64
2023/05/21 05:06:42;;;;;;;0.40;0.40;;;;;;;18.52;79.16;94983.81;5072794;28;20977;-59
2023/05/21 05:09:11;;;;;;;0.50;0.40;;;;;;;17.89;71.08;94950.69;5073367;28;20510;-56
2023/05/21 05:11:39;;;;;;;0.50;0.43;;;;;;;18.36;76.54;94981.66;5073183;28;20798;-57
2023/05/21 05:14:08;;;;;;;0.40;0.30;;;;;;;18.05;72.61;94949.03;5045941;28;20441;-57
2023/05/21 05:16:36;;;;;;;0.40;0.33;;;;;;;17.99;69.91;94979.03;5072561;28;20442;-61
2023/05/21 05:19:05;;;;;;;0.40;0.37;;;;;;;18.21;70.32;94965.34;5072513;28;20467;-54
2023/05/21 05:21:35;;;;;;;0.40;0.30;;;;;;;18.42;69.88;94957.31;5072310;28;20915;-66
2023/05/21 05:24:03;;;;;;;0.40;0.30;;;;;;;18.49;68.53;94952.25;5072868;28;20985;-67
2023/05/21 05:26:31;;;;;;;0.60;0.40;;;;;;;18.27;67.83;94967.50;5072261;28;20442;-67
2023/05/21 05:29:00;;;;;;;0.60;0.60;;;;;;;18.44;69.61;94955.88;5072546;28;20438;-67
2023/05/21 05:31:28;;;;;;;0.40;0.40;;;;;;;18.25;68.44;94888.47;5072357;28;20441;-67
2023/05/21 05:33:57;;;;;;;5.67;0.30;;;;;;;18.51;66.58;94952.69;5072540;28;20879;-67
2023/05/21 05:36:26;;;;;;;0.40;0.33;;;;;;;18.41;65.95;94937.75;5071624;28;20976;-67
2023/05/21 05:38:55;;;;;;;0.40;0.30;;;;;;;18.30;67.33;94917.78;5072190;28;20535;-67
2023/05/21 05:41:24;;;;;;;0.40;0.37;;;;;;;18.55;66.84;94954.41;5072311;28;20950;-67
2023/05/21 05:43:52;;;;;;;0.40;0.30;;;;;;;18.00;66.65;94943.06;5072323;28;20476;-66
2023/05/21 05:46:20;;;;;;;0.50;0.50;;;;;;;18.03;66.77;94959.31;5071570;28;21088;-65
2023/05/21 05:48:49;;;;;;;0.57;0.40;;;;;;;18.21;67.62;94962.66;5073335;28;20433;-65
2023/05/21 05:51:17;;;;;;;4.93;0.73;;;;;;;17.80;67.82;94960.69;5072093;28;20449;-65
2023/05/21 05:53:45;;;;;;;8.80;0.60;;;;;;;17.68;68.13;94952.53;5072136;28;20990;-65
2023/05/21 05:56:15;;;;;;;2.50;1.60;;;;;;;17.72;67.66;94967.66;5071813;28;21000;-64
2023/05/21 05:58:44;;;;;;;0.60;0.40;;;;;;;17.67;66.90;94967.03;5072125;28;20477;-64
2023/05/21 06:01:13;;;;;;;0.73;0.73;;;;;;;17.80;68.42;94966.03;5071767;28;20467;-65
2023/05/21 06:03:41;;;;;;;0.97;0.97;;;;;;;17.89;67.83;94963.28;5071736;28;20438;-65
2023/05/21 06:06:09;;;;;;;0.40;0.20;;;;;;;18.03;67.06;94961.97;5071430;28;20934;-64
2023/05/21 06:08:39;;;;;;;0.50;0.40;;;;;;;17.53;66.07;94931.63;5071253;28;20445;-64
2023/05/21 06:11:08;;;;;;;0.50;0.40;;;;;;;17.44;66.22;94923.59;5072112;28;20511;-64
2023/05/21 06:13:38;;;;;;;0.70;0.70;;;;;;;17.21;66.42;94903.50;5071481;28;20510;-64
2023/05/21 06:16:08;;;;;;;1.00;0.73;;;;;;;17.70;66.43;94961.03;5071918;28;20800;-70
2023/05/21 06:18:37;;;;;;;0.50;0.50;;;;;;;17.81;66.11;94972.19;5071480;28;20524;-70
2023/05/21 06:21:05;;;;;;;0.50;0.50;;;;;;;17.63;65.61;94963.44;5072089;28;20442;-70
2023/05/21 06:23:35;;;;;;;0.40;0.30;;;;;;;17.83;65.76;94967.28;5071391;28;20433;-70
2023/05/21 06:26:04;;;;;;;3.80;0.93;;;;;;;16.83;65.19;94787.56;5070231;28;20442;-70
2023/05/21 06:28:32;;;;;;;0.50;0.30;;;;;;;17.76;64.46;94919.53;5064180;28;20491;-70
2023/05/21 06:31:02;;;;;;;0.40;0.30;;;;;;;18.27;64.77;94961.34;5059667;28;20440;-70
2023/05/21 06:33:30;;;;;;;0.30;0.30;;;;;;;18.38;64.28;94959.88;5069802;28;20438;-70
2023/05/21 06:35:59;;;;;;;0.50;0.30;;;;;;;18.46;64.03;94963.59;5069471;28;20962;-70
2023/05/21 06:38:27;;;;;;;0.53;0.30;;;;;;;18.42;63.60;94966.94;5070003;28;20484;-70
2023/05/21 06:40:57;;;;;;;0.30;0.20;;;;;;;18.44;64.66;94960.47;5057030;28;20446;-70
2023/05/21 06:43:27;;;;;;;0.40;0.30;;;;;;;18.22;64.25;94954.28;5068531;28;20441;-70
2023/05/21 06:45:55;;;;;;;0.60;0.60;;;;;;;18.03;63.31;94964.66;5069768;28;20922;-70
2023/05/21 06:48:25;;;;;;;0.30;0.20;;;;;;;18.25;65.41;94950.94;5043831;28;20531;-70
2023/05/21 06:50:54;;;;;;;3.90;0.60;;;;;;;18.27;63.72;94954.09;5056144;28;20446;-69
2023/05/21 06:53:22;;;;;;;0.40;0.30;;;;;;;18.00;63.98;94956.47;5070188;28;20445;-70
2023/05/21 06:55:52;;;;;;;0.40;0.30;;;;;;;18.18;64.02;94955.25;5070682;28;20499;-70
2023/05/21 06:58:21;;;;;;;0.40;0.30;;;;;;;18.23;66.84;94945.13;5071105;28;20978;-70
2023/05/21 07:00:50;;;;;;;8.10;0.70;;;;;;;18.13;62.89;94950.09;5071094;28;20442;-70
2023/05/21 07:03:18;;;;;;;1.63;0.40;;;;;;;18.34;63.49;94948.22;5071526;28;20445;-70
2023/05/21 07:05:48;;;;;;;0.40;0.30;;;;;;;18.47;62.34;94949.09;5071017;28;20496;-70
2023/05/21 07:08:18;;;;;;;1.90;0.30;;;;;;;18.56;61.47;94949.81;5071405;28;20507;-70
2023/05/21 07:10:47;;;;;;;0.50;0.40;;;;;;;18.49;63.27;94952.25;5071149;28;20789;-71
2023/05/21 07:13:15;;;;;;;0.40;0.20;;;;;;;18.46;62.86;94939.44;5071117;28;20463;-70
2023/05/21 07:15:43;;;;;;;0.43;0.40;;;;;;;18.17;63.88;94951.78;5070717;28;20437;-70
2023/05/21 07:18:12;;;;;;;0.50;0.40;;;;;;;18.26;64.24;94943.69;5071440;28;20559;-70
2023/05/21 07:20:40;;;;;;;0.50;0.37;;;;;;;18.10;62.65;94945.38;5075126;28;20444;-70
2023/05/21 07:23:10;;;;;;;1.83;0.43;;;;;;;18.14;64.41;94955.13;5075208;28;20457;-70
2023/05/21 07:25:39;;;;;;;0.40;0.40;;;;;;;18.28;63.77;94949.50;5074680;28;20449;-70
2023/05/21 07:28:07;;;;;;;0.60;0.57;;;;;;;18.42;63.63;94934.72;5074159;28;20477;-69
2023/05/21 07:30:35;;;;;;;0.40;0.30;;;;;;;18.19;63.21;94956.84;5074578;28;20445;-69
2023/05/21 07:33:04;;;;;;;0.40;0.40;;;;;;;17.81;61.86;94897.91;5074702;28;20437;-69
2023/05/21 07:35:32;;;;;;;0.50;0.40;;;;;;;18.46;61.88;94950.97;5074368;28;20434;-69
2023/05/21 07:38:02;;;;;;;0.40;0.30;;;;;;;18.61;60.34;94960.34;5073669;28;20448;-67
2023/05/21 07:40:32;;;;;;;0.50;0.50;;;;;;;18.54;63.63;94958.22;5074045;28;20437;-67
2023/05/21 07:43:00;;;;;;;0.40;0.30;;;;;;;18.66;62.49;94957.47;5073940;28;20444;-70
2023/05/21 07:45:29;;;;;;;0.40;0.30;;;;;;;18.59;61.03;94960.69;5074399;28;20433;-69
2023/05/21 07:47:57;;;;;;;0.40;0.30;;;;;;;18.65;62.90;94961.25;5074112;28;20430;-68
2023/05/21 07:50:26;;;;;;;0.40;0.30;;;;;;;18.56;65.09;94961.34;5074577;28;20465;-67
2023/05/21 07:52:54;;;;;;;0.40;0.30;;;;;;;18.64;64.92;94963.19;5074111;28;20430;-68
2023/05/21 07:55:23;;;;;;;4.80;0.60;;;;;;;18.21;65.45;94981.44;5073972;28;20448;-67
2023/05/21 07:57:52;;;;;;;0.40;0.30;;;;;;;18.15;66.62;94963.94;5074465;28;20425;-67
2023/05/21 08:00:24;;;;;;;0.40;0.33;;;;;;;18.26;67.62;94984.72;5074104;28;20538;-67
2023/05/21 08:02:53;;;;;;;0.40;0.30;;;;;;;18.21;68.83;94984.13;5048124;28;20433;-67
2023/05/21 08:05:23;;;;;;;0.40;0.30;;;;;;;18.23;68.80;94993.41;5074461;28;20433;-66
2023/05/21 08:07:51;;;;;;;0.37;0.30;;;;;;;18.24;71.02;94978.88;5074793;28;20446;-67
2023/05/21 08:10:19;;;;;;;0.50;0.30;;;;;;;18.31;71.04;94979.19;5074176;28;20437;-67
2023/05/21 08:12:48;;;;;;;0.60;0.40;;;;;;;17.90;72.57;94984.44;5074178;28;20426;-68
2023/05/21 08:15:18;;;;;;;0.40;0.30;;;;;;;17.75;70.67;94984.97;5073579;28;21079;-67
2023/05/21 08:17:46;;;;;;;0.60;0.53;;;;;;;18.03;70.52;94977.28;5073814;28;20492;-68
2023/05/21 08:20:15;;;;;;;0.40;0.30;;;;;;;18.17;66.57;94985.88;5073822;28;20484;-67
2023/05/21 08:22:43;;;;;;;12.30;1.23;;;;;;;18.12;69.87;94999.47;5073892;28;20434;-67
2023/05/21 08:25:11;;;;;;;0.40;0.27;;;;;;;18.02;70.01;95000.63;5073785;28;20434;-67
2023/05/21 08:27:40;;;;;;;0.70;0.50;;;;;;;18.00;70.93;95004.75;5073303;28;20851;-67
2023/05/21 08:30:10;;;;;;;0.40;0.30;;;;;;;18.07;69.15;94991.59;5072962;28;20830;-67
2023/05/21 08:32:40;;;;;;;2.67;1.03;;;;;;;18.17;70.07;95012.69;5073820;28;20442;-67
2023/05/21 08:35:09;;;;;;;1.03;1.00;;;;;;;17.79;73.79;95015.38;5073729;28;20433;-66
2023/05/21 08:37:37;;;;;;;0.40;0.20;;;;;;;17.96;76.17;95015.31;5073571;28;20441;-67
2023/05/21 08:40:07;;;;;;;3.10;1.63;;;;;;;17.73;82.18;95014.78;5073163;28;20473;-67
2023/05/21 08:42:40;;;;;;;0.40;0.40;;;;;;;17.49;82.60;95009.16;5073287;28;20458;-67
2023/05/21 08:45:11;;;;;;;0.73;0.73;;;;;;;16.78;88.24;94993.81;5073281;28;20438;-65
2023/05/21 08:47:43;;;;;;;1.70;1.70;;;;;;;16.84;94.16;95024.69;5073227;28;20453;-66
2023/05/21 08:50:14;;;;;;;0.50;0.50;;;;;;;15.78;96.04;94846.84;5072996;28;20448;-66
2023/05/21 08:52:42;;;;;;;0.53;0.47;;;;;;;16.67;96.04;95009.41;5073550;28;20433;-65
2023/05/21 08:55:11;;;;;;;0.93;0.93;;;;;;;16.38;100.00;95025.25;5073339;28;20445;-65
2023/05/21 08:57:43;;;;;;;1.33;1.13;;;;;;;16.29;100.00;95019.88;5060186;28;20507;-65
2023/05/21 09:00:13;;;;;;;3.80;1.67;;;;;;;16.14;100.00;95025.66;5073008;28;20477;-65
2023/05/21 09:02:45;;;;;;;1.77;1.63;;;;;;;16.08;100.00;95026.13;5072713;28;20433;-64
2023/05/21 09:05:15;;;;;;;0.80;0.80;;;;;;;15.83;100.00;95022.28;5072630;28;20437;-64
2023/05/21 09:07:47;;;;;;;1.17;1.07;;;;;;;16.12;100.00;95027.84;5072916;28;20438;-64
2023/05/21 09:10:24;;;;;;;3.10;2.30;;;;;;;16.07;100.00;95024.53;5072247;28;20926;-65
2023/05/21 09:12:53;;;;;;;1.63;0.87;;;;;;;15.57;100.00;95026.72;5072738;28;20438;-65
2023/05/21 09:15:22;;;;;;;1.13;0.77;;;;;;;15.95;100.00;95022.47;5072698;28;20441;-64
2023/05/21 09:17:52;;;;;;;2.10;2.00;;;;;;;15.80;100.00;94998.84;5072910;28;20523;-65
2023/05/21 09:20:25;;;;;;;1.63;1.07;;;;;;;16.70;100.00;95040.09;5072462;28;20477;-65
2023/05/21 09:22:54;;;;;;;0.63;0.63;;;;;;;16.56;100.00;95015.38;5072849;28;20952;-65
2023/05/21 09:25:26;;;;;;;0.50;0.30;;;;;;;16.38;100.00;95042.09;5072254;28;20457;-64
2023/05/21 09:27:56;;;;;;;1.03;0.70;;;;;;;16.67;100.00;95041.50;5072469;28;20693;-64
2023/05/21 09:30:25;;;;;;;0.77;0.77;;;;;;;16.58;100.00;95040.72;5072715;28;20433;-64
2023/05/21 09:33:00;;;;;;;1.67;0.87;;;;;;;16.33;100.00;95044.13;5072335;28;20487;-64
2023/05/21 09:35:29;;;;;;;1.57;1.43;;;;;;;16.06;100.00;95041.69;5072409;28;20468;-64
2023/05/21 09:37:57;;;;;;;1.23;0.73;;;;;;;16.13;100.00;95045.50;5072140;28;20476;-64
2023/05/21 09:40:26;;;;;;;1.00;0.53;;;;;;;15.79;100.00;95038.13;5072318;28;20478;-64
2023/05/21 09:42:55;;;;;;;0.90;0.77;;;;;;;16.13;100.00;95045.50;5071446;28;20461;-64
2023/05/21 09:45:25;;;;;;;2.23;1.80;;;;;;;16.17;100.00;95038.41;5062452;28;20438;-64
2023/05/21 09:47:54;;;;;;;1.20;1.13;;;;;;;15.82;100.00;95039.38;5068999;28;20433;-64
2023/05/21 09:50:26;;;;;;;1.87;1.67;;;;;;;16.02;100.00;95035.38;5072586;28;20445;-65
2023/05/21 09:52:56;;;;;;;2.30;2.13;;;;;;;15.76;100.00;95038.72;5071705;28;20437;-65
2023/05/21 09:55:26;;;;;;;2.40;2.30;;;;;;;16.01;100.00;95036.50;5072220;28;20437;-65
2023/05/21 09:57:54;;;;;;;1.83;1.73;;;;;;;15.79;100.00;95040.78;5071760;28;20434;-65
2023/05/21 10:00:26;;;;;;;1.37;0.90;;;;;;;15.80;100.00;95037.03;5072155;28;20854;-64
2023/05/21 10:02:55;;;;;;;3.87;1.03;;;;;;;15.60;100.00;95039.47;5046797;28;20491;-64
2023/05/21 10:05:26;;;;;;;2.03;1.67;;;;;;;15.12;100.00;94999.25;5070523;28;20446;-64
2023/05/21 10:07:59;;;;;;;7.90;1.20;;;;;;;15.41;100.00;95038.84;5060646;28;20441;-64
2023/05/21 10:10:29;;;;;;;0.97;0.80;;;;;;;15.47;100.00;95046.47;5071668;28;20860;-64
2023/05/21 10:13:01;;;;;;;0.77;0.50;;;;;;;15.65;100.00;95056.16;5071849;28;20981;-64
2023/05/21 10:15:32;;;;;;;0.50;0.47;;;;;;;15.71;100.00;95048.78;5071412;28;20434;-64
2023/05/21 10:18:03;;;;;;;2.03;1.93;;;;;;;15.67;100.00;95037.13;5071725;28;20438;-64
2023/05/21 10:20:33;;;;;;;2.87;0.80;;;;;;;15.78;100.00;95036.56;5070945;28;20473;-64
2023/05/21 10:23:02;;;;;;;1.43;1.23;;;;;;;15.86;100.00;95035.78;5072678;28;20438;-64
2023/05/21 10:25:31;;;;;;;2.00;1.03;;;;;;;16.12;100.00;95035.09;5071638;28;20471;-64
2023/05/21 10:28:00;;;;;;;2.97;2.87;;;;;;;16.10;100.00;95029.28;5071300;28;20465;-64
2023/05/21 10:30:29;;;;;;;0.70;0.70;;;;;;;16.40;100.00;95021.16;5071806;28;20449;-64
2023/05/21 10:32:59;;;;;;;0.70;0.60;;;;;;;16.46;100.00;95016.47;5071424;28;20788;-65
2023/05/21 10:35:29;;;;;;;0.70;0.50;;;;;;;16.51;100.00;95027.00;5071570;28;20520;-65
2023/05/21 10:38:01;;;;;;;0.77;0.77;;;;;;;16.51;99.32;95027.00;5057800;28;20977;-65
2023/05/21 10:40:30;;;;;;;2.13;0.77;;;;;;;16.14;100.00;95020.31;5071692;28;20473;-64
2023/05/21 10:43:19;;;;;;;0.80;0.80;;;;;;;16.07;100.00;95011.97;5070998;28;20430;-65
2023/05/21 10:46:02;;;;;;;4.00;2.03;;;;;;;16.07;100.00;95013.84;5071094;28;20437;-65
2023/05/21 10:48:48;;;;;;;1.47;0.90;;;;;;;16.02;100.00;95019.34;5049759;28;20513;-64
2023/05/21 10:51:23;;;;;;;1.10;0.80;;;;;;;16.15;99.85;95005.06;5070707;28;20434;-65
2023/05/21 10:54:16;;;;;;;0.50;0.40;;;;;;;16.61;100.00;95015.25;5072735;28;21011;-65
2023/05/21 10:56:54;;;;;;;1.00;1.00;;;;;;;16.71;91.53;95001.53;5075550;28;20483;-66
2023/05/21 10:59:36;;;;;;;0.57;0.53;;;;;;;16.72;88.58;95003.13;5075485;28;20463;-66
2023/05/21 11:02:06;;;;;;;0.93;0.93;;;;;;;16.49;86.09;95003.22;5075129;28;20433;-66
2023/05/21 11:04:38;;;;;;;0.47;0.47;;;;;;;16.65;88.27;94976.03;5075386;28;20493;-66
2023/05/21 11:07:07;;;;;;;8.13;2.10;;;;;;;16.75;87.47;95002.47;5075165;28;20441;-66
2023/05/21 11:09:38;;;;;;;2.43;2.00;;;;;;;16.67;84.82;95004.06;5075163;28;20919;-67
2023/05/21 11:12:08;;;;;;;1.50;0.80;;;;;;;16.67;85.05;95000.63;5074890;28;20874;-68
2023/05/21 11:14:39;;;;;;;1.47;0.60;;;;;;;16.98;83.09;94993.19;5075254;28;21167;-68
2023/05/21 11:17:12;;;;;;;0.93;0.93;;;;;;;16.80;81.46;94997.00;5074879;28;20425;-69
2023/05/21 11:19:42;;;;;;;0.90;0.90;;;;;;;16.46;81.35;94934.31;5075119;28;20437;-68
2023/05/21 11:22:21;;;;;;;1.00;0.77;;;;;;;16.69;82.30;94987.69;5074555;28;20473;-68
2023/05/21 11:24:52;;;;;;;0.83;0.80;;;;;;;16.29;82.35;94915.56;5074644;28;20973;-68
2023/05/21 11:27:42;;;;;;;0.80;0.80;;;;;;;16.81;80.49;94993.19;5074656;28;20476;-70
2023/05/21 11:30:15;;;;;;;1.73;1.60;;;;;;;16.87;78.42;94989.28;5071606;28;21009;-69
2023/05/21 11:33:16;;;;;;;0.73;0.73;;;;;;;16.85;80.11;94991.47;5075002;28;20508;-70
2023/05/21 11:35:58;;;;;;;0.70;0.70;;;;;;;16.90;77.40;94984.06;5048562;28;20927;-69
2023/05/21 11:38:29;;;;;;;1.27;1.03;;;;;;;16.79;76.43;94982.81;5074356;28;20503;-70
2023/05/21 11:41:03;;;;;;;0.60;0.60;;;;;;;17.28;96.56;94994.88;5074476;28;20481;-71
2023/05/21 11:43:32;;;;;;;0.70;0.70;;;;;;;17.13;76.60;94990.81;5050708;28;20437;-71